logo



Minimumtemperatur heute 6.1     Maximumtemperatur heute 22.1
Datum Zeit
MEZ
Lufttemperatur
C
Windrichtung
Grad
Wind Mittel
Km/h
Wind Min
Km/h
Wind Max
Km/h
rel. Feuchte
%
2016-09-29 19:30:00 13.9 212 0.6 0.2 4.4 84
2016-09-29 19:25:00 14.3 205 0.5 0.0 4.0 82
2016-09-29 19:20:00 15.1 220 0.2 0.1 1.7 79
2016-09-29 19:15:00 15.1 200 0.0 0.0 1.6 79
2016-09-29 19:10:00 15.3 144 0.3 0.0 2.6 79
2016-09-29 19:05:00 15.6 330 1.7 1.0 11.9 77
2016-09-29 19:00:00 15.3 276 1.7 2.0 14.2 78
2016-09-29 18:55:00 15.2 317 0.8 0.0 7.5 78
2016-09-29 18:50:00 14.4 204 1.0 0.7 8.5 80
2016-09-29 18:45:00 15.0 299 0.5 0.0 8.5 79
2016-09-29 18:40:00 15.3 154 0.4 0.0 3.8 79
2016-09-29 18:35:00 15.4 260 0.2 0.0 2.0 78
2016-09-29 18:30:00 15.8 176 0.5 0.4 3.7 76
2016-09-29 18:25:00 16.7 226 0.9 0.0 8.5 74
2016-09-29 18:20:00 15.9 165 0.8 0.0 7.3 76
2016-09-29 18:15:00 16.1 81 0.5 0.0 6.1 76
2016-09-29 18:10:00 17.1 239 0.9 0.2 6.9 73
2016-09-29 18:05:00 17.5 195 1.4 3.1 8.5 69
2016-09-29 18:00:00 17.4 222 1.1 1.9 7.3 71
2016-09-29 17:55:00 18.3 219 0.8 0.1 9.5 67
2016-09-29 17:50:00 18.9 250 1.9 2.6 12.1 64
2016-09-29 17:45:00 18.8 220 2.7 5.6 14.4 67
2016-09-29 17:40:00 18.8 213 1.7 3.3 11.0 66
2016-09-29 17:35:00 18.5 224 1.6 3.5 10.2 67
2016-09-29 17:30:00 19.0 214 1.8 3.3 10.3 65
2016-09-29 17:25:00 18.8 196 1.6 2.6 9.7 68
2016-09-29 17:20:00 18.7 210 1.5 2.5 7.8 69
2016-09-29 17:15:00 18.4 203 1.2 1.7 9.6 69
2016-09-29 17:10:00 18.9 206 1.5 3.8 7.8 67
2016-09-29 17:05:00 19.3 236 2.0 4.3 11.1 65
2016-09-29 17:00:00 19.0 245 1.5 2.1 9.4 66
2016-09-29 16:55:00 19.5 216 1.3 2.2 8.4 67
2016-09-29 16:50:00 19.7 221 1.7 3.4 9.0 67
2016-09-29 16:45:00 19.9 197 1.6 1.8 11.0 66
2016-09-29 16:40:00 19.1 232 0.9 0.0 9.9 66
2016-09-29 16:35:00 19.4 226 0.9 0.7 8.1 70
2016-09-29 16:30:00 20.1 274 0.9 0.0 8.8 71
2016-09-29 16:25:00 19.9 207 1.6 3.2 13.3 64
2016-09-29 16:20:00 20.1 228 0.8 1.2 8.3 71
2016-09-29 16:15:00 20.8 211 1.2 1.3 7.9 70
2016-09-29 16:10:00 20.5 211 0.4 0.4 3.1 74
2016-09-29 16:05:00 19.8 225 0.4 0.0 4.0 75
2016-09-29 16:00:00 19.9 174 0.9 0.9 5.8 77
2016-09-29 15:55:00 20.1 95 0.7 0.6 4.8 75
2016-09-29 15:50:00 20.6 213 0.5 0.0 3.6 75
2016-09-29 15:45:00 20.3 231 0.7 0.1 4.0 76
2016-09-29 15:40:00 20.3 268 0.3 0.0 3.4 76
2016-09-29 15:35:00 20.2 230 1.1 2.3 6.0 76
2016-09-29 15:30:00 19.9 262 0.9 1.7 6.0 78
2016-09-29 15:25:00 20.4 232 0.4 0.0 4.2 73
2016-09-29 15:20:00 20.0 248 2.0 4.0 10.9 73
2016-09-29 15:15:00 20.1 247 0.4 0.1 5.7 75
2016-09-29 15:10:00 19.8 258 0.7 1.5 3.9 74
2016-09-29 15:05:00 19.8 225 0.2 0.0 2.1 74
2016-09-29 15:00:00 19.7 238 0.5 1.1 2.5 75
2016-09-29 14:55:00 19.8 230 0.0 0.0 1.6 74
2016-09-29 14:50:00 20.1 245 0.1 0.0 2.1 73
2016-09-29 14:45:00 19.9 260 0.1 0.0 1.6 73
2016-09-29 14:40:00 20.2 167 0.1 0.0 2.1 71
2016-09-29 14:35:00 19.9 214 0.1 0.0 0.9 74
2016-09-29 14:30:00 20.0 226 0.3 0.2 1.6 72
2016-09-29 14:25:00 20.2 202 0.7 1.0 3.3 71
2016-09-29 14:20:00 20.3 171 0.7 0.0 5.3 70
2016-09-29 14:15:00 21.0 183 0.2 0.0 2.2 69
2016-09-29 14:10:00 21.5 170 0.8 1.9 3.6 67
2016-09-29 14:05:00 22.1 135 0.7 1.0 4.2 65
2016-09-29 14:00:00 21.9 94 0.8 1.7 4.5 57
2016-09-29 13:55:00 21.9 101 0.6 0.2 4.2 56
2016-09-29 13:50:00 21.8 93 1.0 1.7 4.8 56
2016-09-29 13:45:00 21.7 132 0.6 1.0 3.4 60
2016-09-29 13:40:00 21.4 159 0.7 1.5 4.1 66
2016-09-29 13:35:00 21.5 129 0.9 1.3 5.2 60
2016-09-29 13:30:00 21.5 98 1.0 2.2 5.0 59
2016-09-29 13:25:00 21.6 139 0.8 0.9 4.7 60
2016-09-29 13:20:00 21.2 98 0.9 0.9 5.7 62
2016-09-29 13:15:00 21.2 119 0.8 0.4 6.7 62
2016-09-29 13:10:00 21.3 239 0.8 1.1 4.5 61
2016-09-29 13:05:00 21.3 113 0.8 0.4 5.6 61
2016-09-29 13:00:00 21.1 144 1.0 0.4 6.5 61
2016-09-29 12:55:00 21.1 81 0.6 0.5 4.6 63
2016-09-29 12:50:00 20.7 206 0.5 0.0 4.8 67
2016-09-29 12:45:00 20.7 42 0.4 0.0 5.1 64
2016-09-29 12:40:00 20.6 239 0.3 0.0 2.3 70
2016-09-29 12:35:00 20.3 229 0.4 0.0 3.0 68
2016-09-29 12:30:00 20.2 197 0.5 0.4 3.1 71
2016-09-29 12:25:00 20.1 138 0.4 0.0 3.3 63
2016-09-29 12:20:00 19.9 262 0.8 1.2 5.2 65
2016-09-29 12:15:00 20.0 338 0.9 1.6 4.7 65
2016-09-29 12:10:00 20.1 321 0.5 0.0 5.0 63
2016-09-29 12:05:00 20.1 276 0.6 0.0 4.2 64
2016-09-29 12:00:00 20.1 314 0.7 0.2 5.7 62
2016-09-29 11:55:00 19.8 129 0.3 0.0 2.2 64
2016-09-29 11:50:00 19.5 214 0.5 0.5 4.4 66
2016-09-29 11:45:00 19.0 261 0.6 1.0 3.9 67
2016-09-29 11:40:00 18.7 275 0.7 0.4 5.0 67
2016-09-29 11:35:00 18.7 309 0.7 0.9 4.3 67
2016-09-29 11:30:00 18.6 242 0.4 0.0 4.5 71
2016-09-29 11:25:00 18.5 266 0.6 0.8 3.8 71
2016-09-29 11:20:00 18.3 253 1.0 1.7 4.7 71
2016-09-29 11:15:00 18.3 249 0.7 0.1 4.2 70
2016-09-29 11:10:00 18.0 270 0.7 0.6 4.8 67
2016-09-29 11:05:00 18.0 260 0.5 0.3 3.9 68
2016-09-29 11:00:00 18.0 264 0.5 0.0 4.7 69
2016-09-29 10:55:00 18.1 193 0.5 0.0 3.5 65
2016-09-29 10:50:00 18.1 292 0.4 0.0 3.7 69
2016-09-29 10:45:00 17.8 179 0.2 0.1 2.2 69
2016-09-29 10:40:00 17.3 148 0.2 0.0 2.7 71
2016-09-29 10:35:00 16.9 171 0.5 0.0 4.4 76
2016-09-29 10:30:00 16.6 314 0.3 0.2 2.8 79
2016-09-29 10:25:00 16.0 100 0.3 0.1 2.3 81
2016-09-29 10:20:00 15.6 200 0.4 0.0 2.9 83
2016-09-29 10:15:00 15.2 14 0.5 0.8 3.2 85
2016-09-29 10:10:00 14.9 19 1.0 1.9 5.7 86
2016-09-29 10:05:00 14.7 53 0.6 0.3 4.4 86
2016-09-29 10:00:00 14.4 322 0.2 0.0 2.5 88
2016-09-29 09:55:00 14.0 288 0.6 0.4 4.0 90
2016-09-29 09:50:00 13.7 251 0.9 1.5 4.4 91
2016-09-29 09:45:00 13.3 268 0.8 1.4 4.1 93
2016-09-29 09:40:00 13.0 291 0.5 0.2 3.2 95
2016-09-29 09:35:00 12.5 330 0.4 0.0 2.5 96
2016-09-29 09:30:00 12.2 269 0.4 0.2 4.6 96
2016-09-29 09:25:00 11.7 130 0.3 0.0 2.6 96
2016-09-29 09:20:00 11.3 89 0.3 0.2 2.6 96
2016-09-29 09:15:00 11.0 11 0.4 0.2 3.4 96
2016-09-29 09:10:00 10.7 278 0.3 0.3 2.1 96
2016-09-29 09:05:00 10.5 247 0.7 1.0 3.8 96
2016-09-29 09:00:00 10.3 259 0.8 1.5 4.4 96
2016-09-29 08:55:00 10.2 293 0.8 1.6 3.6 96
2016-09-29 08:50:00 9.9 284 0.6 0.8 3.4 96
2016-09-29 08:45:00 9.8 270 0.8 0.8 4.6 96
2016-09-29 08:40:00 9.5 252 0.3 0.0 2.7 96
2016-09-29 08:35:00 9.3 206 0.0 0.0 1.1 96
2016-09-29 08:30:00 9.1 99 0.1 0.0 0.8 96
2016-09-29 08:25:00 8.8 267 0.0 0.0 0.1 96
2016-09-29 08:20:00 8.5 259 0.0 0.0 0.9 96
2016-09-29 08:15:00 8.3 197 0.0 0.0 0.2 96
2016-09-29 08:10:00 8.1 155 0.1 0.0 1.3 96
2016-09-29 08:05:00 8.0 144 0.3 0.0 2.1 96
2016-09-29 08:00:00 8.0 101 0.3 0.0 2.4 96
2016-09-29 07:55:00 8.0 57 0.0 0.0 0.0 96
2016-09-29 07:50:00 8.0 40 0.0 0.0 0.0 96
2016-09-29 07:45:00 7.9 301 0.0 0.0 0.0 96
2016-09-29 07:40:00 7.8 286 0.0 0.0 0.0 96
2016-09-29 07:35:00 7.8 281 0.0 0.0 0.0 96
www.zamg.ac.at

klagenfurt@zamg.ac.at